createdAt,value
2018-07-23T00:01:50.209Z,81.67
2018-07-23T00:04:18.375Z,81.94
2018-07-23T00:06:46.547Z,81.76
2018-07-23T00:09:14.656Z,81.40
2018-07-23T00:11:42.854Z,81.65
2018-07-23T00:14:11.059Z,81.60
2018-07-23T00:16:39.198Z,81.46
2018-07-23T00:19:07.276Z,81.54
2018-07-23T00:21:35.417Z,81.83
2018-07-23T00:24:03.500Z,82.26
2018-07-23T00:26:31.628Z,82.59
2018-07-23T00:28:59.817Z,82.42
2018-07-23T00:31:27.998Z,82.20
2018-07-23T00:33:56.172Z,82.22
2018-07-23T00:36:24.339Z,81.95
2018-07-23T00:38:52.468Z,82.75
2018-07-23T00:41:20.573Z,82.73
2018-07-23T00:43:48.680Z,82.85
2018-07-23T00:46:16.765Z,82.85
2018-07-23T00:48:44.868Z,82.54
2018-07-23T00:51:12.948Z,82.94
2018-07-23T00:53:41.041Z,83.34
2018-07-23T00:56:09.121Z,83.72
2018-07-23T00:58:37.200Z,83.62
2018-07-23T01:01:05.320Z,83.83
2018-07-23T01:03:33.419Z,83.89
2018-07-23T01:06:01.516Z,83.35
2018-07-23T01:08:29.646Z,83.48
2018-07-23T01:10:57.759Z,83.45
2018-07-23T01:13:25.867Z,83.77
2018-07-23T01:15:53.964Z,83.97
2018-07-23T01:18:22.090Z,83.69
2018-07-23T01:20:50.159Z,83.96
2018-07-23T01:23:18.296Z,83.80
2018-07-23T01:25:46.436Z,83.72
2018-07-23T01:28:14.498Z,83.16
2018-07-23T01:30:42.573Z,83.06
2018-07-23T01:33:11.851Z,83.72
2018-07-23T01:35:39.957Z,83.54
2018-07-23T01:38:08.016Z,83.34
2018-07-23T01:40:36.108Z,83.26
2018-07-23T01:43:04.192Z,83.28
2018-07-23T01:45:32.325Z,83.26
2018-07-23T01:48:00.439Z,83.44
2018-07-23T01:50:28.544Z,83.18
2018-07-23T01:52:56.666Z,82.98
2018-07-23T01:55:24.824Z,82.68
2018-07-23T01:57:52.911Z,83.41
2018-07-23T02:00:21.003Z,83.33
2018-07-23T02:02:49.119Z,83.31
2018-07-23T02:05:17.189Z,83.48
2018-07-23T02:07:45.329Z,83.63
2018-07-23T02:10:13.416Z,84.07
2018-07-23T02:12:41.516Z,83.77
2018-07-23T02:15:09.589Z,83.91
2018-07-23T02:17:37.695Z,83.42
2018-07-23T02:20:05.922Z,83.50
2018-07-23T02:22:34.040Z,83.95
2018-07-23T02:25:02.157Z,83.48
2018-07-23T02:27:30.260Z,83.37
2018-07-23T02:29:58.341Z,83.52
2018-07-23T02:32:26.470Z,83.83
2018-07-23T02:34:54.641Z,83.90
2018-07-23T02:37:22.781Z,83.86
2018-07-23T02:39:50.900Z,83.76
2018-07-23T02:42:19.006Z,83.74
2018-07-23T02:44:47.064Z,83.81
2018-07-23T02:47:15.176Z,83.98
2018-07-23T02:49:43.266Z,84.03
2018-07-23T02:52:11.388Z,84.14
2018-07-23T02:54:39.511Z,84.15
2018-07-23T02:57:07.671Z,84.11
2018-07-23T02:59:35.833Z,84.11
2018-07-23T03:02:03.898Z,84.20
2018-07-23T03:04:31.984Z,84.04
2018-07-23T03:07:00.095Z,83.77
2018-07-23T03:09:28.208Z,84.01
2018-07-23T03:11:56.305Z,83.99
2018-07-23T03:14:24.395Z,83.95
2018-07-23T03:16:52.504Z,84.02
2018-07-23T03:19:21.326Z,83.89
2018-07-23T03:21:49.544Z,84.07
2018-07-23T03:24:17.620Z,83.80
2018-07-23T03:26:45.720Z,84.18
2018-07-23T03:29:13.872Z,84.02
2018-07-23T03:31:41.989Z,83.94
2018-07-23T03:34:10.100Z,83.89
2018-07-23T03:36:38.211Z,84.20
2018-07-23T03:39:08.139Z,84.01
2018-07-23T03:41:36.298Z,84.19
2018-07-23T03:44:04.432Z,83.77
2018-07-23T03:46:32.558Z,83.88
2018-07-23T03:49:00.704Z,84.25
2018-07-23T03:51:28.921Z,84.01
2018-07-23T03:53:57.072Z,83.63
2018-07-23T03:56:25.238Z,83.77
2018-07-23T03:58:53.373Z,83.74
2018-07-23T04:01:21.515Z,84.44
2018-07-23T04:03:49.636Z,84.63
2018-07-23T04:06:17.804Z,84.64
2018-07-23T04:08:45.930Z,84.55
2018-07-23T04:11:14.033Z,84.78
2018-07-23T04:13:42.193Z,85.11
2018-07-23T04:16:10.317Z,84.96
2018-07-23T04:18:38.458Z,84.90
2018-07-23T04:21:06.642Z,84.97
2018-07-23T04:23:34.780Z,84.47
2018-07-23T04:26:02.940Z,84.44
2018-07-23T04:28:31.115Z,83.96
2018-07-23T04:30:59.292Z,83.57
2018-07-23T04:33:27.428Z,84.10
2018-07-23T04:35:55.564Z,84.15
2018-07-23T04:38:23.692Z,84.05
2018-07-23T04:40:51.807Z,83.51
2018-07-23T04:43:19.931Z,82.85
2018-07-23T04:45:48.052Z,82.14
2018-07-23T04:48:16.151Z,82.14
2018-07-23T04:50:44.343Z,81.88
2018-07-23T04:53:12.417Z,81.14
2018-07-23T04:55:40.543Z,78.74
2018-07-23T04:58:08.683Z,73.14
2018-07-23T05:00:36.850Z,69.92
2018-07-23T05:03:04.973Z,65.90
2018-07-23T05:05:33.116Z,62.76
2018-07-23T05:08:01.246Z,60.20
2018-07-23T05:10:29.426Z,56.06
2018-07-23T05:12:57.484Z,54.28
2018-07-23T05:15:25.585Z,55.61
2018-07-23T05:17:53.765Z,54.71
2018-07-23T05:20:21.852Z,50.58
2018-07-23T05:22:50.032Z,49.15
2018-07-23T05:25:18.172Z,49.81
2018-07-23T05:27:46.282Z,48.50
2018-07-23T05:30:14.366Z,48.68
2018-07-23T05:32:42.455Z,46.80
2018-07-23T05:35:10.605Z,46.62
2018-07-23T05:37:38.732Z,45.28
2018-07-23T05:40:06.992Z,43.93
2018-07-23T05:42:35.127Z,43.32
2018-07-23T05:45:03.244Z,44.03
2018-07-23T05:47:31.357Z,44.54
2018-07-23T05:50:00.204Z,44.47
2018-07-23T05:52:28.280Z,45.29
2018-07-23T05:54:56.433Z,44.43
2018-07-23T05:57:24.565Z,42.93
2018-07-23T05:59:52.691Z,43.39
2018-07-23T06:02:20.789Z,42.47
2018-07-23T06:04:49.073Z,42.24
2018-07-23T06:07:17.146Z,41.01
2018-07-23T06:09:45.257Z,41.59
2018-07-23T06:12:13.364Z,42.07
2018-07-23T06:14:41.510Z,44.27
2018-07-23T06:17:09.717Z,42.86
2018-07-23T06:19:37.799Z,40.84
2018-07-23T06:22:05.910Z,45.42
2018-07-23T06:24:34.012Z,46.94
2018-07-23T06:27:02.134Z,47.77
2018-07-23T06:29:30.220Z,45.50
2018-07-23T06:31:58.431Z,42.25
2018-07-23T06:34:26.513Z,40.68
2018-07-23T06:36:54.592Z,39.98
2018-07-23T06:39:22.679Z,40.12
2018-07-23T06:41:50.807Z,41.04
2018-07-23T06:44:18.873Z,38.95
2018-07-23T06:46:46.937Z,42.72
2018-07-23T06:49:15.026Z,43.09
2018-07-23T06:51:43.153Z,42.73
2018-07-23T06:54:11.358Z,38.04
2018-07-23T06:56:39.498Z,41.87
2018-07-23T06:59:07.571Z,38.85
2018-07-23T07:01:35.696Z,41.39
2018-07-23T07:04:03.780Z,44.71
2018-07-23T07:06:31.887Z,42.41
2018-07-23T07:08:59.992Z,40.16
2018-07-23T07:11:28.171Z,41.08
2018-07-23T07:13:56.260Z,39.73
2018-07-23T07:16:24.750Z,37.67
2018-07-23T07:18:52.858Z,36.87
2018-07-23T07:21:20.953Z,37.17
2018-07-23T07:23:49.110Z,38.64
2018-07-23T07:26:17.208Z,39.91
2018-07-23T07:28:45.332Z,38.49
2018-07-23T07:31:13.432Z,37.57
2018-07-23T07:33:41.529Z,35.91
2018-07-23T07:36:09.634Z,33.81
2018-07-23T07:38:37.737Z,34.12
2018-07-23T07:41:06.247Z,34.34
2018-07-23T07:43:34.360Z,36.96
2018-07-23T07:46:02.458Z,35.46
2018-07-23T07:48:30.620Z,37.40
2018-07-23T07:50:58.733Z,38.76
2018-07-23T07:53:26.902Z,37.94
2018-07-23T07:55:55.081Z,37.05
2018-07-23T07:58:23.251Z,33.86
2018-07-23T08:00:51.454Z,35.86
2018-07-23T08:03:19.634Z,35.64
2018-07-23T08:05:47.735Z,37.17
2018-07-23T08:08:15.804Z,39.88
2018-07-23T08:10:43.869Z,41.42
2018-07-23T08:13:12.124Z,39.25
2018-07-23T08:15:40.220Z,38.53
2018-07-23T08:18:08.351Z,40.29
2018-07-23T08:20:43.180Z,37.09
2018-07-23T08:23:11.307Z,37.82
2018-07-23T08:25:39.388Z,36.77
2018-07-23T08:28:07.781Z,36.45
2018-07-23T08:30:35.909Z,37.77
2018-07-23T08:33:04.088Z,38.22
2018-07-23T08:35:32.447Z,39.62
2018-07-23T08:38:00.685Z,43.50
2018-07-23T08:40:29.013Z,44.00
2018-07-23T08:42:57.124Z,46.36
2018-07-23T08:45:25.262Z,44.52
2018-07-23T08:47:53.368Z,42.83
2018-07-23T08:50:21.443Z,39.75
2018-07-23T08:52:49.539Z,39.70
2018-07-23T08:55:17.639Z,37.82
2018-07-23T08:57:45.745Z,38.84
2018-07-23T09:00:13.888Z,37.63
2018-07-23T09:02:41.963Z,39.85
2018-07-23T09:05:10.113Z,43.53
2018-07-23T09:07:38.195Z,44.33
2018-07-23T09:10:06.416Z,45.12
2018-07-23T09:12:34.507Z,43.87
2018-07-23T09:15:02.614Z,42.84
2018-07-23T09:17:30.691Z,41.45
2018-07-23T09:19:58.806Z,42.19
2018-07-23T09:22:27.035Z,40.29
2018-07-23T09:24:55.226Z,40.55
2018-07-23T09:27:23.391Z,41.19
2018-07-23T09:29:51.494Z,42.18
2018-07-23T09:32:19.590Z,43.98
2018-07-23T09:34:47.748Z,45.46
2018-07-23T09:37:15.869Z,45.93
2018-07-23T09:39:43.974Z,44.79
2018-07-23T09:42:12.074Z,42.39
2018-07-23T09:44:40.178Z,43.29
2018-07-23T09:47:08.301Z,42.91
2018-07-23T09:49:36.451Z,43.18
2018-07-23T09:52:04.536Z,43.53
2018-07-23T09:54:32.626Z,43.40
2018-07-23T09:57:00.714Z,44.33
2018-07-23T09:59:28.785Z,46.67
2018-07-23T10:01:56.881Z,46.03
2018-07-23T10:04:24.990Z,44.63
2018-07-23T10:06:53.112Z,44.18
2018-07-23T10:09:21.195Z,45.02
2018-07-23T10:11:49.265Z,43.55
2018-07-23T10:14:17.349Z,42.86
2018-07-23T10:16:45.426Z,42.12
2018-07-23T10:19:13.507Z,42.90
2018-07-23T10:21:41.581Z,41.51
2018-07-23T10:24:09.675Z,42.80
2018-07-23T10:26:37.753Z,42.06
2018-07-23T10:29:05.841Z,44.04
2018-07-23T10:31:33.910Z,43.53
2018-07-23T10:34:02.000Z,43.47
2018-07-23T10:36:30.061Z,43.39
2018-07-23T10:38:58.202Z,43.51
2018-07-23T10:41:26.265Z,42.78
2018-07-23T10:43:54.349Z,41.00
2018-07-23T10:46:22.514Z,42.43
2018-07-23T10:48:50.682Z,41.22
2018-07-23T10:51:18.771Z,41.18
2018-07-23T10:53:46.873Z,41.07
2018-07-23T10:56:14.966Z,41.36
2018-07-23T10:58:43.048Z,42.90
2018-07-23T11:01:11.111Z,42.89
2018-07-23T11:03:39.228Z,42.22
2018-07-23T11:06:07.323Z,43.68
2018-07-23T11:08:36.046Z,43.48
2018-07-23T11:11:04.163Z,44.53
2018-07-23T11:13:32.290Z,43.33
2018-07-23T11:16:00.376Z,42.35
2018-07-23T11:18:28.490Z,41.41
2018-07-23T11:20:56.614Z,41.68
2018-07-23T11:23:24.715Z,40.74
2018-07-23T11:25:52.814Z,41.23
2018-07-23T11:28:20.919Z,42.96
2018-07-23T11:30:49.035Z,44.25
2018-07-23T11:33:17.125Z,44.51
2018-07-23T11:35:45.239Z,44.94
2018-07-23T11:38:13.320Z,45.34
2018-07-23T11:40:41.426Z,45.57
2018-07-23T11:43:09.751Z,45.77
2018-07-23T11:45:37.866Z,46.05
2018-07-23T11:48:05.964Z,44.62
2018-07-23T11:50:34.013Z,44.04
2018-07-23T11:53:02.092Z,44.44
2018-07-23T11:55:30.204Z,42.41
2018-07-23T11:57:58.332Z,42.06
2018-07-23T12:00:26.420Z,42.21
2018-07-23T12:02:54.503Z,42.72
2018-07-23T12:05:22.691Z,42.45
2018-07-23T12:07:50.761Z,43.23
2018-07-23T12:10:18.850Z,42.44
2018-07-23T12:12:46.942Z,42.45
2018-07-23T12:15:15.076Z,41.34
2018-07-23T12:17:43.199Z,41.19
2018-07-23T12:20:11.302Z,41.46
2018-07-23T12:22:39.399Z,42.06
2018-07-23T12:25:07.491Z,43.18
2018-07-23T12:27:35.588Z,43.05
2018-07-23T12:30:03.700Z,42.84
2018-07-23T12:32:32.272Z,42.89
2018-07-23T12:35:00.352Z,41.79
2018-07-23T12:37:28.482Z,42.41
2018-07-23T12:39:56.660Z,43.89
2018-07-23T12:42:24.733Z,44.85
2018-07-23T12:44:52.817Z,44.33
2018-07-23T12:47:20.948Z,44.19
2018-07-23T12:49:49.024Z,44.67
2018-07-23T12:52:17.095Z,44.07
2018-07-23T12:54:45.258Z,44.55
2018-07-23T12:57:13.379Z,45.27
2018-07-23T12:59:41.505Z,45.59
2018-07-23T13:02:09.646Z,45.33
2018-07-23T13:04:37.730Z,44.88
2018-07-23T13:07:05.803Z,44.43
2018-07-23T13:09:33.914Z,42.97
2018-07-23T13:12:02.045Z,43.63
2018-07-23T13:14:30.155Z,43.90
2018-07-23T13:16:58.279Z,45.96
2018-07-23T13:19:26.362Z,46.15
2018-07-23T13:21:54.492Z,44.52
2018-07-23T13:24:22.605Z,44.86
2018-07-23T13:26:50.688Z,43.79
2018-07-23T13:29:18.800Z,45.19
2018-07-23T13:31:46.897Z,44.63
2018-07-23T13:34:15.048Z,43.72
2018-07-23T13:36:43.119Z,45.02
2018-07-23T13:39:13.001Z,45.06
2018-07-23T13:41:41.440Z,45.78
2018-07-23T13:44:10.856Z,45.25
2018-07-23T13:46:39.322Z,46.38
2018-07-23T13:49:07.424Z,46.09
2018-07-23T13:51:35.876Z,46.08
2018-07-23T13:54:03.970Z,46.11
2018-07-23T13:56:32.063Z,46.79
2018-07-23T13:59:00.186Z,44.28
2018-07-23T14:01:28.233Z,44.60
2018-07-23T14:03:56.293Z,44.42
2018-07-23T14:06:24.402Z,43.58
2018-07-23T14:08:52.469Z,43.40
2018-07-23T14:11:20.743Z,44.62
2018-07-23T14:13:48.839Z,44.99
2018-07-23T14:16:16.984Z,46.00
2018-07-23T14:18:45.118Z,47.26
2018-07-23T14:21:13.308Z,47.29
2018-07-23T14:23:41.409Z,45.67
2018-07-23T14:26:09.473Z,48.33
2018-07-23T14:28:37.566Z,49.05
2018-07-23T14:31:05.756Z,48.52
2018-07-23T14:33:33.867Z,47.99
2018-07-23T14:36:01.998Z,47.76
2018-07-23T14:38:30.114Z,46.40
2018-07-23T14:40:58.211Z,47.00
2018-07-23T14:43:26.294Z,46.86
2018-07-23T14:45:54.413Z,46.06
2018-07-23T14:48:22.514Z,47.45
2018-07-23T14:50:50.623Z,47.11
2018-07-23T14:53:18.708Z,46.98
2018-07-23T14:55:46.866Z,46.97
2018-07-23T14:58:15.033Z,46.90
2018-07-23T15:00:43.132Z,44.64
2018-07-23T15:03:11.951Z,43.96
2018-07-23T15:05:40.156Z,44.40
2018-07-23T15:08:08.229Z,44.02
2018-07-23T15:10:36.332Z,44.21
2018-07-23T15:13:04.461Z,43.49
2018-07-23T15:15:32.546Z,44.70
2018-07-23T15:18:00.634Z,44.06
2018-07-23T15:20:28.753Z,43.20
2018-07-23T15:22:56.840Z,44.50
2018-07-23T15:25:24.920Z,43.13
2018-07-23T15:27:53.074Z,42.72
2018-07-23T15:30:21.172Z,41.85
2018-07-23T15:32:49.254Z,42.87
2018-07-23T15:35:17.414Z,42.51
2018-07-23T15:37:45.498Z,43.35
2018-07-23T15:40:13.575Z,43.63
2018-07-23T15:42:42.616Z,43.63
2018-07-23T15:45:10.780Z,43.37
2018-07-23T15:47:38.790Z,43.47
2018-07-23T15:50:06.895Z,43.80
2018-07-23T15:52:34.956Z,44.74
2018-07-23T15:55:03.030Z,44.65
2018-07-23T15:57:31.170Z,45.60
2018-07-23T15:59:59.271Z,44.06
2018-07-23T16:02:27.354Z,45.20
2018-07-23T16:04:55.436Z,45.31
2018-07-23T16:07:23.542Z,45.92
2018-07-23T16:09:51.619Z,45.69
2018-07-23T16:12:19.799Z,45.74
2018-07-23T16:14:47.917Z,45.68
2018-07-23T16:17:22.435Z,45.31
2018-07-23T16:19:50.550Z,45.08
2018-07-23T16:22:18.683Z,45.64
2018-07-23T16:24:46.769Z,45.44
2018-07-23T16:27:14.907Z,45.82
2018-07-23T16:29:43.019Z,45.98
2018-07-23T16:32:11.132Z,45.52
2018-07-23T16:34:39.223Z,45.55
2018-07-23T16:37:07.371Z,47.27
2018-07-23T16:39:35.445Z,47.27
2018-07-23T16:42:03.517Z,46.46
2018-07-23T16:44:31.612Z,45.87
2018-07-23T16:46:59.818Z,46.97
2018-07-23T16:49:27.877Z,46.85
2018-07-23T16:51:56.070Z,46.70
2018-07-23T16:54:24.139Z,47.20
2018-07-23T16:56:52.234Z,47.25
2018-07-23T16:59:20.797Z,47.56
2018-07-23T17:01:48.899Z,46.89
2018-07-23T17:04:17.057Z,48.25
2018-07-23T17:06:45.227Z,47.88
2018-07-23T17:09:13.482Z,48.17
2018-07-23T17:11:41.639Z,46.84
2018-07-23T17:14:09.795Z,48.00
2018-07-23T17:16:37.917Z,49.11
2018-07-23T17:19:06.316Z,49.36
2018-07-23T17:21:34.447Z,50.29
2018-07-23T17:24:02.544Z,49.32
2018-07-23T17:26:30.651Z,49.26
2018-07-23T17:28:58.757Z,50.08
2018-07-23T17:31:26.849Z,48.94
2018-07-23T17:33:54.985Z,49.85
2018-07-23T17:36:23.086Z,50.72
2018-07-23T17:38:51.467Z,50.24
2018-07-23T17:41:19.571Z,49.28
2018-07-23T17:43:47.684Z,49.90
2018-07-23T17:46:15.804Z,48.74
2018-07-23T17:48:43.895Z,49.41
2018-07-23T17:51:11.988Z,49.70
2018-07-23T17:53:40.095Z,50.04
2018-07-23T17:56:08.199Z,49.37
2018-07-23T17:58:36.292Z,48.83
2018-07-23T18:01:04.376Z,49.73
2018-07-23T18:03:32.465Z,50.36
2018-07-23T18:06:00.594Z,50.42
2018-07-23T18:08:28.758Z,50.91
2018-07-23T18:10:56.944Z,51.20
2018-07-23T18:13:25.056Z,51.10
2018-07-23T18:15:53.131Z,51.21
2018-07-23T18:18:21.208Z,50.87
2018-07-23T18:20:49.307Z,51.33
2018-07-23T18:23:17.472Z,51.69
2018-07-23T18:25:46.067Z,51.00
2018-07-23T18:28:14.148Z,51.40
2018-07-23T18:30:42.279Z,51.91
2018-07-23T18:33:11.176Z,51.40
2018-07-23T18:35:39.252Z,52.18
2018-07-23T18:38:07.435Z,50.94
2018-07-23T18:40:35.479Z,50.88
2018-07-23T18:43:03.562Z,52.09
2018-07-23T18:45:31.739Z,51.22
2018-07-23T18:48:00.270Z,50.95
2018-07-23T18:50:28.364Z,50.38
2018-07-23T18:52:56.545Z,51.26
2018-07-23T18:55:24.718Z,51.07
2018-07-23T18:57:52.870Z,51.92
2018-07-23T19:00:20.967Z,51.69
2018-07-23T19:02:49.141Z,51.58
2018-07-23T19:05:17.239Z,51.70
2018-07-23T19:07:45.338Z,50.98
2018-07-23T19:10:13.430Z,51.47
2018-07-23T19:12:41.496Z,51.65
2018-07-23T19:15:09.616Z,52.41
2018-07-23T19:17:37.717Z,52.20
2018-07-23T19:20:05.833Z,53.04
2018-07-23T19:22:33.900Z,52.84
2018-07-23T19:25:02.924Z,52.23
2018-07-23T19:27:32.066Z,53.64
2018-07-23T19:30:01.004Z,53.07
2018-07-23T19:32:29.806Z,54.32
2018-07-23T19:34:57.934Z,55.26
2018-07-23T19:37:26.024Z,54.94
2018-07-23T19:39:54.115Z,56.09
2018-07-23T19:42:22.372Z,55.30
2018-07-23T19:44:50.443Z,55.55
2018-07-23T19:47:18.524Z,55.79
2018-07-23T19:49:46.656Z,56.17
2018-07-23T19:52:14.758Z,55.81
2018-07-23T19:54:43.024Z,56.35
2018-07-23T19:57:11.102Z,56.66
2018-07-23T19:59:39.259Z,57.36
2018-07-23T20:02:07.349Z,57.70
2018-07-23T20:04:35.463Z,58.32
2018-07-23T20:07:03.551Z,58.59
2018-07-23T20:09:31.708Z,59.11
2018-07-23T20:11:59.841Z,60.23
2018-07-23T20:14:27.952Z,60.15
2018-07-23T20:16:56.076Z,60.54
2018-07-23T20:19:24.267Z,60.32
2018-07-23T20:21:52.385Z,59.94
2018-07-23T20:24:20.487Z,60.16
2018-07-23T20:26:48.564Z,60.86
2018-07-23T20:29:16.636Z,61.62
2018-07-23T20:31:44.692Z,61.56
2018-07-23T20:34:12.813Z,61.98
2018-07-23T20:36:40.904Z,62.38
2018-07-23T20:39:09.008Z,62.38
2018-07-23T20:41:37.128Z,62.39
2018-07-23T20:44:05.205Z,62.87
2018-07-23T20:46:33.367Z,63.88
2018-07-23T20:49:01.455Z,64.09
2018-07-23T20:51:29.573Z,63.93
2018-07-23T20:53:57.643Z,64.10
2018-07-23T20:56:25.752Z,64.14
2018-07-23T20:58:53.887Z,65.37
2018-07-23T21:01:21.987Z,64.49
2018-07-23T21:03:50.119Z,65.65
2018-07-23T21:06:18.167Z,66.52
2018-07-23T21:08:46.295Z,65.84
2018-07-23T21:11:14.378Z,65.92
2018-07-23T21:13:42.524Z,67.05
2018-07-23T21:16:10.623Z,66.83
2018-07-23T21:18:38.733Z,68.04
2018-07-23T21:21:06.950Z,67.81
2018-07-23T21:23:35.042Z,68.20
2018-07-23T21:26:03.156Z,70.02
2018-07-23T21:28:31.263Z,69.92
2018-07-23T21:30:59.414Z,70.72
2018-07-23T21:33:27.512Z,70.06
2018-07-23T21:35:55.603Z,71.04
2018-07-23T21:38:23.752Z,70.70
2018-07-23T21:40:51.831Z,71.58
2018-07-23T21:43:19.948Z,71.17
2018-07-23T21:45:48.075Z,70.84
2018-07-23T21:48:16.199Z,70.91
2018-07-23T21:50:44.290Z,70.96
2018-07-23T21:53:12.639Z,71.21
2018-07-23T21:55:40.765Z,71.08
2018-07-23T21:58:08.858Z,71.11
2018-07-23T22:00:37.926Z,71.15
2018-07-23T22:03:05.967Z,71.08
2018-07-23T22:05:34.150Z,71.15
2018-07-23T22:08:02.239Z,71.09
2018-07-23T22:10:30.363Z,71.46
2018-07-23T22:12:58.529Z,71.30
2018-07-23T22:15:26.638Z,71.73
2018-07-23T22:17:54.780Z,72.63
2018-07-23T22:20:22.933Z,72.85
2018-07-23T22:22:51.100Z,73.36
2018-07-23T22:25:19.213Z,73.86
2018-07-23T22:27:47.317Z,73.34
2018-07-23T22:30:15.494Z,74.04
2018-07-23T22:32:43.546Z,74.46
2018-07-23T22:35:11.677Z,74.26
2018-07-23T22:37:39.766Z,75.09
2018-07-23T22:40:07.835Z,74.30
2018-07-23T22:42:36.462Z,74.62
2018-07-23T22:45:05.362Z,74.66
2018-07-23T22:47:33.442Z,74.87
2018-07-23T22:50:02.133Z,74.55
2018-07-23T22:52:30.228Z,74.75
2018-07-23T22:54:58.318Z,75.38
2018-07-23T22:57:26.399Z,74.88
2018-07-23T22:59:54.496Z,74.39
2018-07-23T23:02:22.612Z,74.60
2018-07-23T23:04:50.743Z,74.65
2018-07-23T23:07:18.848Z,74.57
2018-07-23T23:09:46.950Z,74.96
2018-07-23T23:12:15.095Z,74.89
2018-07-23T23:14:43.222Z,75.29
2018-07-23T23:17:11.335Z,75.73
2018-07-23T23:19:39.466Z,75.62
2018-07-23T23:22:07.548Z,75.97
2018-07-23T23:24:35.654Z,76.47
2018-07-23T23:27:03.776Z,76.55
2018-07-23T23:29:31.874Z,77.15
2018-07-23T23:31:59.970Z,77.36
2018-07-23T23:34:28.104Z,76.51
2018-07-23T23:36:56.228Z,76.41
2018-07-23T23:39:24.340Z,76.72
2018-07-23T23:41:52.511Z,76.64
2018-07-23T23:44:20.645Z,76.90
2018-07-23T23:46:48.823Z,77.02
2018-07-23T23:49:16.952Z,77.29
2018-07-23T23:51:45.101Z,77.24
2018-07-23T23:54:13.275Z,76.56
2018-07-23T23:56:41.352Z,76.07
2018-07-23T23:59:09.502Z,76.29
